Weather at Sevilla Airport

Public forecast

Using degrees Celsius for public forecast. Weather courtesy of forecast.io.

Current aviation weather report (METAR) for Sevilla Airport

Retrieved 2020/09/21 11:30 UTC (29 minutes ago):

LEZL 211130Z 05003KT CAVOK 26/14 Q1018 NOSIG

Aviation forecast (TAF) for Sevilla Airport

Retrieved 2020/09/21 09:27 UTC (3 hours ago):

TAF LEZL 210800Z 2109/2209 03005KT CAVOK TX31/2116Z TN18/2206Z PROB40 TEMPO 2117/2121 24010KT